Albert, Kansas
Current Conditions -  °F | °C
As of 12:15 AM on Sunday 23 Nov 2014 (Local Time) from KGBD Reporting Station
Broken Clouds Broken Clouds  
Wind Chill: 12°   Ceiling: 1600
Heat Index: 12°   Visibility: 10mi
Dew Point:   Wind: 17mph
Humidity: 77%   Direction: 190°S
Pressure: 29.53"   Gusts: NA
Location:  38.45°N, 99.01°W
Report Text: KGBD 230615Z AUTO 19015KT 10SM BKN016 12/08 A2953 RMK AO1
Loading
Personal Weather Stations






























Interactive Weather Map New forecast layout! Learn more

10-Day Weather Forecast

Advertisements
Track Severe Weather on mobile